Time;durP1;ratioP1;P1;durP2;ratioP2;P2;SDS_P1;SDS_P2;PMS_P1;PMS_P2;Temp;Humidity;BMP_temperature;BMP_pressure;BME280_temperature;BME280_humidity;BME280_pressure;Samples;Min_cycle;Max_cycle;Signal;HPM_P1;HPM_P2
2021/07/02 00:01:40;;;;;;;1.70;1.60;;;16.40;99.90;;;;;;6111152;29;20208;-69
2021/07/02 00:04:43;;;;;;;1.60;1.50;;;16.50;99.90;;;;;;6110740;29;20203;-70
2021/07/02 00:07:45;;;;;;;1.73;1.63;;;16.50;99.90;;;;;;6110461;29;20200;-70
2021/07/02 00:10:47;;;;;;;3.90;1.70;;;16.50;99.90;;;;;;6128158;29;20666;-70
2021/07/02 00:13:49;;;;;;;1.60;1.50;;;16.40;99.90;;;;;;6110162;29;20208;-69
2021/07/02 00:16:51;;;;;;;1.90;1.70;;;16.40;99.90;;;;;;6127615;29;20202;-70
2021/07/02 00:19:54;;;;;;;3.27;1.63;;;16.40;99.90;;;;;;6102387;29;20213;-70
2021/07/02 00:22:56;;;;;;;2.00;1.80;;;16.40;99.90;;;;;;6086317;29;20200;-69
2021/07/02 00:25:58;;;;;;;2.30;1.63;;;16.40;99.90;;;;;;6086915;29;20539;-69
2021/07/02 00:29:00;;;;;;;2.10;1.90;;;16.30;99.90;;;;;;6103767;29;20214;-68
2021/07/02 00:32:03;;;;;;;2.30;2.00;;;16.30;99.90;;;;;;6110072;29;20199;-69
2021/07/02 00:35:06;;;;;;;3.33;1.83;;;16.30;99.90;;;;;;6126791;29;20192;-69
2021/07/02 00:38:09;;;;;;;3.53;1.60;;;16.30;99.90;;;;;;6126810;29;20262;-70
2021/07/02 00:41:11;;;;;;;5.07;2.00;;;16.30;99.90;;;;;;6109976;29;20219;-69
2021/07/02 00:44:14;;;;;;;2.87;2.13;;;16.30;99.90;;;;;;6109870;29;20187;-70
2021/07/02 00:47:18;;;;;;;2.23;2.03;;;16.20;99.90;;;;;;6126857;29;20203;-70
2021/07/02 00:50:20;;;;;;;2.10;1.90;;;16.20;99.90;;;;;;6109325;29;20218;-69
2021/07/02 00:53:22;;;;;;;3.70;1.90;;;16.10;99.90;;;;;;6126885;29;20655;-69
2021/07/02 00:56:27;;;;;;;2.10;1.73;;;16.10;99.90;;;;;;6126641;29;20199;-70
2021/07/02 00:59:30;;;;;;;2.83;2.20;;;16.10;99.90;;;;;;6126204;29;20683;-70
2021/07/02 01:02:33;;;;;;;2.53;1.93;;;16.10;99.90;;;;;;6126730;29;20194;-70
2021/07/02 01:05:36;;;;;;;1.93;1.83;;;16.00;99.90;;;;;;6125994;29;20196;-69
2021/07/02 01:08:41;;;;;;;2.20;2.00;;;16.10;99.90;;;;;;6126555;29;20187;-70
2021/07/02 01:11:44;;;;;;;5.47;2.53;;;16.00;99.90;;;;;;6126070;29;20195;-69
2021/07/02 01:14:47;;;;;;;5.07;2.63;;;16.00;99.90;;;;;;6126379;29;20195;-70
2021/07/02 01:17:52;;;;;;;2.60;2.40;;;16.00;99.90;;;;;;6124703;29;20214;-70
2021/07/02 01:20:57;;;;;;;2.13;1.90;;;15.90;99.90;;;;;;6124415;29;20200;-69
2021/07/02 01:24:02;;;;;;;2.00;1.90;;;15.90;99.90;;;;;;6125026;29;20202;-69
2021/07/02 01:27:05;;;;;;;2.20;1.97;;;15.90;99.90;;;;;;6124015;29;20200;-69
2021/07/02 01:30:09;;;;;;;2.93;2.00;;;15.80;99.90;;;;;;6126089;29;20199;-69
2021/07/02 01:33:13;;;;;;;2.83;2.07;;;15.90;99.90;;;;;;6125069;29;20185;-69
2021/07/02 01:36:23;;;;;;;2.23;2.00;;;15.80;99.90;;;;;;6108149;29;20211;-70
2021/07/02 01:39:28;;;;;;;2.57;2.17;;;15.80;99.90;;;;;;6115447;29;20570;-68
2021/07/02 01:42:30;;;;;;;2.63;2.17;;;15.90;99.90;;;;;;6125351;29;20198;-69
2021/07/02 01:45:32;;;;;;;2.10;1.80;;;15.90;99.90;;;;;;6108679;29;20204;-70
2021/07/02 01:48:36;;;;;;;2.30;2.10;;;15.90;99.90;;;;;;6123658;29;20214;-70
2021/07/02 01:51:38;;;;;;;2.60;2.37;;;15.90;99.90;;;;;;6124243;29;20207;-69
2021/07/02 01:54:41;;;;;;;1.90;1.70;;;15.90;99.90;;;;;;6125521;29;20258;-69
2021/07/02 01:57:45;;;;;;;2.23;2.03;;;15.90;99.90;;;;;;6123428;29;20726;-70
2021/07/02 02:00:51;;;;;;;2.50;2.13;;;15.90;99.90;;;;;;6125488;29;20184;-69
2021/07/02 02:03:56;;;;;;;2.77;2.20;;;15.90;99.90;;;;;;6108405;29;20454;-68
2021/07/02 02:07:02;;;;;;;2.27;1.90;;;15.80;99.90;;;;;;6108100;29;20196;-69
2021/07/02 02:10:05;;;;;;;4.07;2.40;;;15.80;99.90;;;;;;6125332;29;20228;-69
2021/07/02 02:13:08;;;;;;;2.40;2.20;;;15.80;99.90;;;;;;6107516;29;20196;-69
2021/07/02 02:16:11;;;;;;;2.83;2.23;;;15.80;99.90;;;;;;6092575;29;20207;-70
2021/07/02 02:19:17;;;;;;;2.90;2.30;;;15.80;99.90;;;;;;6118252;29;20226;-70
2021/07/02 02:22:19;;;;;;;3.67;2.67;;;15.70;99.90;;;;;;6124907;29;20212;-70
2021/07/02 02:25:22;;;;;;;5.50;2.93;;;15.70;99.90;;;;;;6123299;29;20196;-70
2021/07/02 02:28:26;;;;;;;4.17;3.10;;;15.70;99.90;;;;;;6118457;29;20668;-70
2021/07/02 02:31:28;;;;;;;3.03;2.60;;;15.70;99.90;;;;;;6124886;29;20556;-70
2021/07/02 02:34:37;;;;;;;2.40;2.20;;;15.70;99.90;;;;;;6107051;29;20230;-70
2021/07/02 02:37:40;;;;;;;2.83;2.57;;;15.70;99.90;;;;;;6124525;29;20187;-70
2021/07/02 02:40:42;;;;;;;3.30;2.93;;;15.70;99.90;;;;;;6106970;29;20231;-69
2021/07/02 02:43:46;;;;;;;3.00;2.70;;;15.70;99.90;;;;;;6107144;29;20202;-69
2021/07/02 02:46:49;;;;;;;3.20;2.83;;;15.60;99.90;;;;;;6124488;29;20189;-70
2021/07/02 02:49:52;;;;;;;4.30;2.80;;;15.70;99.90;;;;;;6107061;29;20659;-70
2021/07/02 02:52:54;;;;;;;4.53;3.53;;;15.70;99.90;;;;;;6107644;29;20227;-69
2021/07/02 02:55:58;;;;;;;3.03;2.47;;;15.70;99.90;;;;;;6107098;29;20222;-69
2021/07/02 02:59:00;;;;;;;5.30;3.20;;;15.70;99.90;;;;;;6107480;29;20241;-69
2021/07/02 03:02:05;;;;;;;3.67;3.17;;;15.70;99.90;;;;;;6084082;29;20200;-69
2021/07/02 03:05:10;;;;;;;4.87;3.50;;;15.70;99.90;;;;;;6100594;29;20308;-69
2021/07/02 03:08:13;;;;;;;3.00;2.70;;;15.70;99.90;;;;;;6083696;29;20715;-69
2021/07/02 03:11:23;;;;;;;3.87;2.90;;;15.60;99.90;;;;;;6069207;29;20281;-68
2021/07/02 03:14:27;;;;;;;2.90;2.60;;;15.60;99.90;;;;;;6084143;29;20537;-68
2021/07/02 03:17:29;;;;;;;3.50;2.83;;;15.60;99.90;;;;;;6083177;29;20241;-68
2021/07/02 03:20:38;;;;;;;3.63;2.87;;;15.60;99.90;;;;;;6083700;29;20212;-69
2021/07/02 03:23:41;;;;;;;4.50;3.03;;;15.50;99.90;;;;;;6101412;29;20183;-69
2021/07/02 03:26:46;;;;;;;3.93;3.20;;;15.50;99.90;;;;;;6068094;29;20215;-69
2021/07/02 03:29:48;;;;;;;3.70;2.73;;;15.50;99.90;;;;;;6107224;29;20210;-69
2021/07/02 03:32:51;;;;;;;4.07;2.90;;;15.50;99.90;;;;;;6106920;29;20210;-69
2021/07/02 03:35:54;;;;;;;2.83;2.47;;;15.50;99.90;;;;;;6091539;29;20203;-68
2021/07/02 03:38:57;;;;;;;5.17;3.00;;;15.50;99.90;;;;;;6109757;29;20313;-69
2021/07/02 03:42:00;;;;;;;4.80;2.70;;;15.50;99.90;;;;;;6122116;29;20589;-69
2021/07/02 03:45:03;;;;;;;2.50;2.30;;;15.50;99.90;;;;;;6122204;29;20672;-68
2021/07/02 03:48:11;;;;;;;2.80;2.60;;;15.60;99.90;;;;;;6122025;29;20188;-68
2021/07/02 03:51:14;;;;;;;3.80;2.70;;;15.60;99.90;;;;;;6122659;29;20195;-69
2021/07/02 03:54:16;;;;;;;3.83;3.00;;;15.60;99.90;;;;;;6122006;29;20221;-68
2021/07/02 03:57:19;;;;;;;2.63;2.20;;;15.60;99.90;;;;;;6124892;29;20274;-68
2021/07/02 04:00:22;;;;;;;2.57;2.37;;;15.60;99.90;;;;;;6128138;29;20298;-68
2021/07/02 04:03:25;;;;;;;4.73;2.63;;;15.60;99.90;;;;;;6110230;29;20747;-69
2021/07/02 04:06:27;;;;;;;3.50;2.50;;;15.70;99.90;;;;;;6110904;29;20195;-68
2021/07/02 04:09:29;;;;;;;4.37;3.00;;;15.70;99.90;;;;;;6109994;29;20195;-69
2021/07/02 04:12:32;;;;;;;3.60;3.03;;;15.70;99.90;;;;;;6127375;29;20203;-69
2021/07/02 04:15:35;;;;;;;3.03;2.70;;;15.80;99.90;;;;;;6127669;29;20804;-68
2021/07/02 04:18:37;;;;;;;2.77;2.50;;;15.80;99.90;;;;;;6126761;29;20226;-69
2021/07/02 04:21:39;;;;;;;2.70;2.50;;;15.80;99.90;;;;;;6127409;29;20192;-69
2021/07/02 04:24:42;;;;;;;3.73;2.97;;;15.90;99.90;;;;;;6126750;29;20654;-69
2021/07/02 04:27:46;;;;;;;3.67;2.60;;;16.00;99.90;;;;;;6124556;29;20695;-69
2021/07/02 04:30:48;;;;;;;3.97;2.40;;;16.10;99.90;;;;;;6110194;29;20654;-69
2021/07/02 04:33:51;;;;;;;5.37;2.70;;;16.20;99.90;;;;;;6109455;29;20686;-68
2021/07/02 04:36:53;;;;;;;4.20;2.73;;;16.30;99.90;;;;;;6109986;29;20200;-69
2021/07/02 04:39:55;;;;;;;4.47;3.07;;;16.30;99.90;;;;;;6125950;29;20270;-70
2021/07/02 04:42:57;;;;;;;2.70;2.30;;;16.40;99.90;;;;;;6109588;29;20203;-69
2021/07/02 04:45:59;;;;;;;4.67;2.77;;;16.50;99.90;;;;;;6126275;29;20608;-70
2021/07/02 04:49:16;;;;;;;4.40;2.57;;;16.60;99.90;;;;;;6126585;29;20191;-69
2021/07/02 04:52:18;;;;;;;3.40;2.60;;;16.70;99.90;;;;;;6109346;29;20294;-70
2021/07/02 04:55:20;;;;;;;2.93;2.20;;;16.80;99.90;;;;;;6126098;29;20198;-69
2021/07/02 04:58:23;;;;;;;2.80;2.50;;;16.80;99.90;;;;;;6109675;29;20203;-69
2021/07/02 05:01:26;;;;;;;3.03;2.27;;;16.70;99.90;;;;;;6125876;29;20218;-70
2021/07/02 05:04:28;;;;;;;2.10;1.90;;;16.80;99.90;;;;;;6126394;29;20191;-69
2021/07/02 05:07:30;;;;;;;3.00;2.07;;;16.80;99.90;;;;;;6125994;29;20266;-69
2021/07/02 05:10:32;;;;;;;2.87;2.50;;;16.80;99.90;;;;;;6125812;29;20202;-69
2021/07/02 05:13:37;;;;;;;3.33;2.83;;;16.90;99.90;;;;;;6124663;29;20222;-70
2021/07/02 05:16:39;;;;;;;4.07;2.80;;;16.90;99.90;;;;;;6125666;29;20202;-70
2021/07/02 05:19:42;;;;;;;3.47;2.63;;;16.90;99.90;;;;;;6125708;29;20291;-69
2021/07/02 05:22:44;;;;;;;3.50;2.63;;;16.90;99.90;;;;;;6124770;29;20214;-70
2021/07/02 05:25:46;;;;;;;2.80;2.60;;;17.10;99.90;;;;;;6124244;29;20270;-70
2021/07/02 05:28:50;;;;;;;2.50;2.30;;;17.20;99.90;;;;;;6125584;29;20199;-69
2021/07/02 05:31:54;;;;;;;2.70;2.50;;;17.30;99.90;;;;;;6107532;29;20254;-70
2021/07/02 05:34:57;;;;;;;3.33;2.60;;;17.40;99.90;;;;;;6125578;29;20311;-71
2021/07/02 05:37:59;;;;;;;7.77;2.57;;;17.40;99.90;;;;;;6124868;29;20199;-69
2021/07/02 05:41:01;;;;;;;3.13;2.63;;;17.30;99.90;;;;;;6123873;29;20245;-70
2021/07/02 05:44:04;;;;;;;3.67;2.67;;;17.40;99.90;;;;;;6124018;29;20693;-69
2021/07/02 05:47:06;;;;;;;2.63;2.40;;;17.40;99.90;;;;;;6124954;29;20592;-69
2021/07/02 05:50:08;;;;;;;3.43;2.87;;;17.40;99.90;;;;;;6125327;29;20199;-70
2021/07/02 05:53:12;;;;;;;2.97;2.33;;;17.40;99.90;;;;;;6107914;29;20195;-69
2021/07/02 05:56:14;;;;;;;2.70;2.47;;;17.40;99.90;;;;;;6124963;29;20195;-70
2021/07/02 05:59:16;;;;;;;3.37;2.80;;;17.40;99.90;;;;;;6125039;29;20211;-69
2021/07/02 06:02:18;;;;;;;3.23;2.73;;;17.40;99.90;;;;;;6124673;29;20621;-69
2021/07/02 06:05:21;;;;;;;3.40;2.70;;;17.40;99.90;;;;;;6125041;29;20554;-69
2021/07/02 06:08:23;;;;;;;4.13;2.93;;;17.50;99.90;;;;;;6124479;29;20317;-70
2021/07/02 06:11:25;;;;;;;3.50;2.43;;;17.50;99.90;;;;;;6107827;29;20532;-69
2021/07/02 06:14:28;;;;;;;3.37;2.70;;;17.60;99.90;;;;;;6124771;29;20192;-70
2021/07/02 06:17:31;;;;;;;3.43;2.50;;;17.70;99.90;;;;;;6124258;29;20271;-70
2021/07/02 06:20:33;;;;;;;4.67;2.50;;;17.60;99.90;;;;;;6123000;29;20219;-70
2021/07/02 06:23:37;;;;;;;4.03;2.87;;;17.60;99.90;;;;;;6124566;29;20198;-70
2021/07/02 06:26:40;;;;;;;2.87;2.33;;;17.50;99.90;;;;;;6123172;29;20215;-69
2021/07/02 06:29:42;;;;;;;3.20;2.60;;;17.50;99.90;;;;;;6124101;29;20191;-68
2021/07/02 06:32:45;;;;;;;3.40;2.50;;;17.50;99.90;;;;;;6124453;29;20219;-69
2021/07/02 06:35:47;;;;;;;3.20;2.57;;;17.70;99.90;;;;;;6107696;29;20225;-69
2021/07/02 06:38:49;;;;;;;3.10;2.43;;;17.80;99.90;;;;;;6123403;29;20607;-69
2021/07/02 06:41:51;;;;;;;2.83;2.30;;;17.90;99.90;;;;;;6107314;29;20205;-70
2021/07/02 06:44:53;;;;;;;4.30;2.70;;;18.00;99.90;;;;;;6123913;29;20201;-69
2021/07/02 06:48:00;;;;;;;4.00;2.43;;;18.00;99.90;;;;;;6124214;29;20211;-69
2021/07/02 06:51:02;;;;;;;2.90;2.33;;;18.00;99.90;;;;;;6107314;29;20563;-69
2021/07/02 06:54:05;;;;;;;3.40;2.10;;;18.10;99.90;;;;;;6106601;29;20203;-69
2021/07/02 06:57:12;;;;;;;4.40;2.40;;;18.30;99.90;;;;;;6107275;29;20210;-71
2021/07/02 07:00:18;;;;;;;2.87;2.57;;;18.30;99.90;;;;;;6123981;29;20565;-70
2021/07/02 07:03:20;;;;;;;2.30;2.10;;;18.30;99.90;;;;;;6124198;29;20196;-70
2021/07/02 07:06:22;;;;;;;2.90;2.60;;;18.20;99.90;;;;;;6107263;29;20194;-69
2021/07/02 07:09:24;;;;;;;2.77;2.10;;;18.30;99.90;;;;;;6106363;29;20365;-69
2021/07/02 07:12:27;;;;;;;2.60;2.40;;;18.30;99.90;;;;;;6091437;29;20678;-70
2021/07/02 07:15:29;;;;;;;3.90;2.50;;;18.30;99.90;;;;;;6123547;29;20202;-70
2021/07/02 07:18:31;;;;;;;4.07;2.53;;;18.10;99.90;;;;;;6123870;29;20199;-70
2021/07/02 07:21:34;;;;;;;3.73;2.80;;;18.00;99.90;;;;;;6123533;29;20564;-69
2021/07/02 07:24:36;;;;;;;3.83;2.60;;;17.90;99.90;;;;;;6106750;29;20203;-69
2021/07/02 07:27:38;;;;;;;3.53;2.70;;;17.80;99.90;;;;;;6107082;29;20195;-69
2021/07/02 07:30:40;;;;;;;2.60;2.40;;;17.90;99.90;;;;;;6123738;29;20203;-69
2021/07/02 07:33:45;;;;;;;3.40;2.60;;;17.90;99.90;;;;;;6111734;29;20335;-69
2021/07/02 07:36:53;;;;;;;4.57;3.00;;;18.00;99.90;;;;;;6127834;29;20188;-69
2021/07/02 07:39:55;;;;;;;3.60;2.60;;;18.10;99.90;;;;;;6121571;29;20415;-70
2021/07/02 07:42:58;;;;;;;3.40;2.80;;;18.30;99.90;;;;;;6128294;29;20191;-70
2021/07/02 07:46:01;;;;;;;3.83;2.90;;;18.30;99.90;;;;;;6126429;29;20327;-70
2021/07/02 07:49:03;;;;;;;3.47;2.47;;;18.40;99.90;;;;;;6126854;29;20270;-70
2021/07/02 07:55:12;;;;;;;2.83;2.53;;;18.20;99.90;;;;;;6127981;29;20203;-70
2021/07/02 07:58:14;;;;;;;4.10;3.07;;;18.40;99.90;;;;;;6127853;29;20275;-68
2021/07/02 08:01:16;;;;;;;4.33;2.50;;;18.50;99.90;;;;;;6125803;29;20216;-69
2021/07/02 08:04:19;;;;;;;3.23;2.87;;;18.70;99.90;;;;;;6110576;29;20193;-69
2021/07/02 08:07:21;;;;;;;5.17;3.03;;;18.80;99.90;;;;;;6127046;29;20749;-69
2021/07/02 08:10:25;;;;;;;4.17;2.90;;;18.90;99.90;;;;;;6128000;29;20183;-70
2021/07/02 08:13:30;;;;;;;3.20;2.87;;;18.90;99.90;;;;;;6094230;29;20290;-70
2021/07/02 08:16:32;;;;;;;3.90;2.90;;;18.80;99.90;;;;;;6110613;29;20199;-68
2021/07/02 08:19:35;;;;;;;3.80;2.50;;;18.80;99.90;;;;;;6127163;29;20222;-69
2021/07/02 08:22:38;;;;;;;3.20;2.67;;;18.70;99.90;;;;;;6126944;29;20195;-70
2021/07/02 08:25:42;;;;;;;3.17;2.77;;;18.70;99.90;;;;;;6127255;29;20191;-70
2021/07/02 08:32:05;;;;;;;3.23;2.93;;;18.80;99.90;;;;;;6123077;29;20534;-68
2021/07/02 08:35:08;;;;;;;3.43;2.67;;;18.70;99.90;;;;;;6109860;29;20203;-70
2021/07/02 08:38:10;;;;;;;2.90;2.60;;;18.70;99.90;;;;;;6126390;29;20202;-69
2021/07/02 08:41:14;;;;;;;3.43;3.13;;;18.50;99.90;;;;;;6126701;29;20279;-69
2021/07/02 08:44:17;;;;;;;3.40;2.77;;;18.50;99.90;;;;;;6109000;29;20207;-69
2021/07/02 08:47:21;;;;;;;3.00;2.70;;;18.50;99.90;;;;;;6126672;29;20570;-70
2021/07/02 08:50:24;;;;;;;3.67;3.00;;;18.60;99.90;;;;;;6109304;29;20306;-68
2021/07/02 08:53:28;;;;;;;2.70;2.50;;;18.60;99.90;;;;;;6109570;29;20204;-70
2021/07/02 08:56:30;;;;;;;3.83;3.27;;;18.60;99.90;;;;;;6126578;29;20222;-70
2021/07/02 08:59:32;;;;;;;5.43;3.03;;;18.70;99.90;;;;;;6109051;29;20204;-70
2021/07/02 09:02:40;;;;;;;2.80;2.60;;;18.70;99.90;;;;;;6118606;29;20759;-70
2021/07/02 09:05:45;;;;;;;3.20;2.90;;;18.70;99.90;;;;;;6126325;29;20164;-71
2021/07/02 09:09:06;;;;;;;4.00;2.90;;;18.80;99.90;;;;;;6126157;29;20191;-70
2021/07/02 09:12:08;;;;;;;3.07;2.77;;;18.90;99.90;;;;;;6126398;29;20184;-70
2021/07/02 09:15:14;;;;;;;3.90;2.67;;;18.90;99.90;;;;;;6125750;29;20547;-70
2021/07/02 09:18:17;;;;;;;4.60;3.47;;;18.80;99.90;;;;;;6125958;29;20176;-70
2021/07/02 09:21:27;;;;;;;3.07;2.77;;;18.80;99.90;;;;;;6125561;29;20213;-69
2021/07/02 09:24:39;;;;;;;3.87;3.07;;;18.90;99.90;;;;;;6109190;29;20191;-71
2021/07/02 09:27:42;;;;;;;4.20;3.30;;;18.80;99.90;;;;;;6108538;29;20219;-70
2021/07/02 09:30:48;;;;;;;3.13;2.87;;;18.70;99.90;;;;;;6108730;29;20203;-70
2021/07/02 09:33:56;;;;;;;3.27;2.60;;;18.70;99.90;;;;;;6085268;29;20607;-70
2021/07/02 09:37:17;;;;;;;5.63;2.97;;;18.60;99.90;;;;;;6084662;29;20628;-70
2021/07/02 09:40:23;;;;;;;4.17;2.83;;;18.60;99.90;;;;;;6123264;29;20606;-69
2021/07/02 09:43:27;;;;;;;3.00;2.80;;;18.70;99.90;;;;;;6125271;29;20179;-69
2021/07/02 09:46:32;;;;;;;4.73;2.90;;;18.70;99.90;;;;;;6124313;29;20184;-69
2021/07/02 09:49:37;;;;;;;4.37;3.17;;;18.50;99.90;;;;;;6124875;29;20179;-70
2021/07/02 09:52:57;;;;;;;5.53;3.07;;;18.50;99.90;;;;;;6125449;29;20192;-70
2021/07/02 09:56:04;;;;;;;3.87;3.20;;;18.50;99.90;;;;;;6124790;29;20266;-70
2021/07/02 09:59:16;;;;;;;2.90;2.60;;;18.40;99.90;;;;;;6123509;29;20191;-69
2021/07/02 10:02:20;;;;;;;3.33;3.03;;;18.30;99.90;;;;;;6103422;29;20207;-69
2021/07/02 10:05:24;;;;;;;4.40;2.90;;;18.30;99.90;;;;;;6124626;29;20198;-70
2021/07/02 10:08:28;;;;;;;4.80;3.20;;;18.20;99.90;;;;;;6124858;29;20187;-69
2021/07/02 10:11:32;;;;;;;5.23;3.30;;;18.20;99.90;;;;;;6107711;29;20199;-69
2021/07/02 10:14:34;;;;;;;3.73;3.00;;;18.10;99.90;;;;;;6092071;29;20202;-70
2021/07/02 10:17:36;;;;;;;5.20;2.90;;;18.00;99.90;;;;;;6107339;29;20209;-70
2021/07/02 10:20:42;;;;;;;3.60;2.97;;;18.10;99.90;;;;;;6123108;29;20215;-69
2021/07/02 10:23:46;;;;;;;6.27;3.17;;;18.20;99.90;;;;;;6123362;29;20194;-69
2021/07/02 10:26:50;;;;;;;3.77;3.17;;;18.30;99.90;;;;;;6107303;29;20258;-69
2021/07/02 10:29:52;;;;;;;6.70;3.00;;;18.40;99.90;;;;;;6123359;29;20187;-69
2021/07/02 10:32:59;;;;;;;3.53;3.23;;;18.40;99.90;;;;;;6124261;29;20207;-70
2021/07/02 10:36:04;;;;;;;2.83;2.60;;;18.60;99.90;;;;;;6106880;29;20652;-70
2021/07/02 10:39:30;;;;;;;3.53;3.00;;;18.70;99.90;;;;;;6124092;29;20315;-70
2021/07/02 10:42:33;;;;;;;5.17;3.40;;;19.00;99.90;;;;;;6124039;29;20538;-69
2021/07/02 10:45:38;;;;;;;3.37;2.97;;;19.20;99.90;;;;;;6107144;29;20590;-70
2021/07/02 10:48:54;;;;;;;3.67;3.37;;;19.20;99.80;;;;;;6123773;29;20351;-70
2021/07/02 10:51:58;;;;;;;4.10;3.23;;;19.20;99.30;;;;;;6091612;29;20335;-70
2021/07/02 10:55:05;;;;;;;4.23;3.37;;;19.30;99.40;;;;;;6107413;29;20262;-70
2021/07/02 10:58:07;;;;;;;3.83;3.03;;;19.40;99.20;;;;;;6123803;29;20188;-69
2021/07/02 11:01:11;;;;;;;3.80;3.10;;;19.60;99.30;;;;;;6123885;29;20357;-69
2021/07/02 11:04:32;;;;;;;3.77;3.37;;;19.70;99.20;;;;;;6123762;29;20184;-68
2021/07/02 11:07:39;;;;;;;5.07;3.57;;;19.60;97.90;;;;;;6129085;29;20199;-68
2021/07/02 11:10:59;;;;;;;3.73;3.00;;;19.60;98.00;;;;;;6128888;29;20180;-69
2021/07/02 11:14:08;;;;;;;3.73;3.07;;;19.90;97.70;;;;;;6111665;29;20196;-68
2021/07/02 11:17:23;;;;;;;5.93;4.00;;;20.20;98.00;;;;;;6111836;29;20202;-68
2021/07/02 11:20:29;;;;;;;3.60;3.30;;;20.10;96.10;;;;;;6111024;29;20251;-69
2021/07/02 11:23:41;;;;;;;3.13;2.83;;;20.10;96.90;;;;;;6128662;29;20639;-69
2021/07/02 11:26:45;;;;;;;4.77;2.97;;;20.20;96.60;;;;;;6128257;29;20231;-69
2021/07/02 11:29:52;;;;;;;7.43;3.80;;;20.40;97.00;;;;;;6111557;29;20183;-70
2021/07/02 11:32:57;;;;;;;4.43;2.87;;;20.50;95.60;;;;;;6111626;29;20290;-70
2021/07/02 11:35:59;;;;;;;6.40;3.73;;;20.60;95.90;;;;;;6128641;29;20188;-71
2021/07/02 11:39:02;;;;;;;3.80;3.20;;;20.60;94.70;;;;;;6114510;29;20234;-71
2021/07/02 11:42:09;;;;;;;3.40;2.90;;;20.60;95.10;;;;;;6126528;29;20586;-70
2021/07/02 11:45:11;;;;;;;6.93;3.87;;;20.70;95.20;;;;;;6128100;29;20558;-70
2021/07/02 11:48:19;;;;;;;3.67;3.37;;;20.70;94.90;;;;;;6110739;29;20275;-70
2021/07/02 11:51:24;;;;;;;4.10;3.70;;;20.50;95.10;;;;;;6128020;29;20351;-70
2021/07/02 11:54:26;;;;;;;4.53;3.10;;;20.30;95.10;;;;;;6128022;29;20195;-70
2021/07/02 11:57:28;;;;;;;4.17;3.50;;;20.20;95.00;;;;;;6126120;29;20676;-70
2021/07/02 12:00:34;;;;;;;3.37;3.07;;;20.20;95.10;;;;;;6127650;29;20212;-70
2021/07/02 12:03:46;;;;;;;3.90;3.17;;;20.20;96.00;;;;;;6110951;29;20208;-70
2021/07/02 12:06:50;;;;;;;4.47;3.60;;;20.10;95.30;;;;;;6111051;29;20191;-70
2021/07/02 12:09:52;;;;;;;4.23;3.10;;;20.00;95.10;;;;;;6110401;29;20207;-70
2021/07/02 12:13:06;;;;;;;5.00;3.60;;;20.10;95.80;;;;;;6127987;29;20205;-70
2021/07/02 12:16:11;;;;;;;5.17;3.30;;;19.90;95.20;;;;;;6127155;29;20240;-70
2021/07/02 12:19:16;;;;;;;3.40;3.10;;;19.90;95.70;;;;;;6120170;29;20209;-70
2021/07/02 12:22:19;;;;;;;4.20;3.40;;;19.90;95.70;;;;;;6127513;29;20200;-70
2021/07/02 12:25:22;;;;;;;3.27;2.97;;;20.10;95.20;;;;;;6125877;29;20682;-71
2021/07/02 12:28:24;;;;;;;4.83;3.30;;;20.30;95.50;;;;;;6110037;29;20568;-72
2021/07/02 12:31:32;;;;;;;3.30;2.83;;;20.50;94.80;;;;;;6127114;29;20204;-71
2021/07/02 12:34:40;;;;;;;5.20;3.00;;;21.00;94.50;;;;;;6110328;29;20198;-72
2021/07/02 12:37:43;;;;;;;4.80;2.80;;;21.20;92.50;;;;;;6110113;29;20203;-71
2021/07/02 12:40:56;;;;;;;5.27;3.43;;;21.50;92.90;;;;;;6126138;29;20237;-71
2021/07/02 12:43:59;;;;;;;3.60;3.30;;;21.20;91.80;;;;;;6126980;29;20548;-72
2021/07/02 12:47:05;;;;;;;3.73;3.37;;;21.10;92.90;;;;;;6126471;29;20183;-71
2021/07/02 12:50:13;;;;;;;4.20;3.43;;;21.10;92.40;;;;;;6126784;29;20180;-71
2021/07/02 12:56:40;;;;;;;3.10;2.87;;;21.50;92.00;;;;;;6099269;29;20775;-72
2021/07/02 12:59:50;;;;;;;3.47;2.73;;;21.60;90.90;;;;;;6126481;29;20191;-71
2021/07/02 13:02:57;;;;;;;3.37;3.07;;;21.70;91.20;;;;;;6109066;29;20313;-73
2021/07/02 13:06:12;;;;;;;3.40;3.10;;;21.90;91.70;;;;;;6126335;29;20551;-71
2021/07/02 13:09:25;;;;;;;3.80;3.40;;;22.10;90.50;;;;;;6125933;29;20189;-74
2021/07/02 13:12:27;;;;;;;3.80;3.47;;;22.10;90.30;;;;;;6093510;29;20319;-73
2021/07/02 13:15:30;;;;;;;3.60;3.10;;;21.80;89.80;;;;;;6109297;29;20270;-73
2021/07/02 13:18:34;;;;;;;3.17;2.87;;;21.60;89.90;;;;;;6108470;29;20628;-73
2021/07/02 13:21:41;;;;;;;3.30;3.00;;;21.80;91.50;;;;;;6126110;29;20204;-73
2021/07/02 13:24:44;;;;;;;2.83;2.63;;;21.90;89.90;;;;;;6125576;29;20268;-73
2021/07/02 13:27:55;;;;;;;4.03;3.30;;;22.00;90.50;;;;;;6108780;29;20207;-72
2021/07/02 13:30:57;;;;;;;4.90;3.30;;;22.00;88.10;;;;;;6108633;29;20203;-73
2021/07/02 13:34:13;;;;;;;3.63;3.20;;;22.20;90.00;;;;;;6125420;29;20215;-72
2021/07/02 13:37:28;;;;;;;3.37;3.00;;;22.40;90.70;;;;;;6108897;29;20210;-73
2021/07/02 13:40:48;;;;;;;3.07;2.80;;;22.50;89.10;;;;;;6107652;29;20252;-73
2021/07/02 13:43:58;;;;;;;3.00;2.60;;;22.60;88.10;;;;;;6108402;29;20652;-72
2021/07/02 13:47:25;;;;;;;3.10;2.70;;;22.50;86.90;;;;;;6125079;29;20650;-70
2021/07/02 13:50:27;;;;;;;4.73;3.13;;;22.20;88.20;;;;;;6115409;29;20208;-71
2021/07/02 13:53:31;;;;;;;4.50;2.90;;;22.10;87.60;;;;;;6125054;29;20188;-73
2021/07/02 13:56:33;;;;;;;3.40;2.77;;;22.00;87.80;;;;;;6108313;29;20191;-70
2021/07/02 13:59:37;;;;;;;3.43;3.00;;;22.00;89.60;;;;;;6107966;29;20203;-70
2021/07/02 14:02:39;;;;;;;2.80;2.60;;;21.80;88.40;;;;;;6107682;29;20227;-70
2021/07/02 14:05:43;;;;;;;3.43;2.83;;;21.70;88.60;;;;;;6125437;29;20188;-71
2021/07/02 14:08:46;;;;;;;3.63;2.73;;;21.70;89.20;;;;;;6124279;29;20218;-70
2021/07/02 14:11:48;;;;;;;2.80;2.60;;;21.70;89.90;;;;;;6125054;29;20223;-70
2021/07/02 14:14:52;;;;;;;4.00;2.77;;;21.80;88.80;;;;;;6124875;29;20347;-70
2021/07/02 14:17:54;;;;;;;3.03;2.73;;;21.80;88.80;;;;;;6124428;29;20495;-70
2021/07/02 14:20:57;;;;;;;3.10;2.80;;;21.70;90.20;;;;;;6107396;29;20230;-70
2021/07/02 14:23:59;;;;;;;3.80;2.50;;;21.50;90.30;;;;;;6124249;29;20323;-70
2021/07/02 14:27:02;;;;;;;2.83;2.60;;;21.50;90.60;;;;;;6124726;29;20188;-70
2021/07/02 14:30:06;;;;;;;4.43;2.90;;;21.50;91.00;;;;;;6107512;29;20203;-71
2021/07/02 14:33:08;;;;;;;3.70;2.77;;;21.30;91.10;;;;;;6123984;29;20282;-70
2021/07/02 14:36:10;;;;;;;2.83;2.63;;;21.30;91.00;;;;;;6124451;29;20203;-70
2021/07/02 14:39:12;;;;;;;2.90;2.53;;;21.10;91.40;;;;;;6117227;29;20326;-71
2021/07/02 14:42:18;;;;;;;3.40;3.10;;;20.70;91.90;;;;;;6107291;29;20678;-71
2021/07/02 14:45:21;;;;;;;3.80;3.17;;;20.50;92.10;;;;;;6106816;29;20251;-71
2021/07/02 14:48:27;;;;;;;2.60;2.40;;;20.40;92.40;;;;;;6107100;29;20568;-71
2021/07/02 14:51:30;;;;;;;3.80;3.37;;;20.40;92.60;;;;;;6107388;29;20542;-70
2021/07/02 14:54:32;;;;;;;3.50;2.70;;;20.40;92.60;;;;;;6106725;29;20230;-70
2021/07/02 14:57:36;;;;;;;3.00;2.63;;;20.40;92.30;;;;;;6111584;29;20211;-70
2021/07/02 15:00:39;;;;;;;3.77;3.17;;;20.40;93.00;;;;;;6123561;29;20203;-70
2021/07/02 15:03:41;;;;;;;3.10;2.80;;;20.40;93.10;;;;;;6124053;29;20582;-71
2021/07/02 15:06:43;;;;;;;2.83;2.50;;;20.50;92.80;;;;;;6123727;29;20199;-70
2021/07/02 15:09:45;;;;;;;3.70;2.80;;;20.60;93.00;;;;;;6106754;29;20187;-71
2021/07/02 15:12:48;;;;;;;3.83;3.37;;;20.60;93.00;;;;;;6124169;29;20195;-70
2021/07/02 15:15:51;;;;;;;3.27;2.97;;;20.70;93.40;;;;;;6106533;29;20204;-70
2021/07/02 15:18:53;;;;;;;5.40;3.37;;;20.90;93.40;;;;;;6114624;29;20204;-70
2021/07/02 15:21:55;;;;;;;4.07;3.20;;;20.70;93.10;;;;;;6107270;29;20219;-71
2021/07/02 15:24:57;;;;;;;3.30;3.00;;;20.60;93.30;;;;;;6122466;29;20648;-70
2021/07/02 15:27:59;;;;;;;3.43;3.10;;;20.60;93.50;;;;;;6123046;29;20200;-70
2021/07/02 15:31:39;;;;;;;3.20;2.90;;;20.80;93.60;;;;;;6121969;29;20208;-70
2021/07/02 15:34:41;;;;;;;3.43;3.07;;;20.90;92.90;;;;;;6106702;29;20210;-70
2021/07/02 15:37:44;;;;;;;4.03;2.70;;;21.00;93.10;;;;;;6123368;29;20269;-71
2021/07/02 15:40:46;;;;;;;3.20;2.90;;;20.90;92.70;;;;;;6123542;29;20233;-70
2021/07/02 15:43:48;;;;;;;3.63;3.33;;;20.70;93.10;;;;;;6123837;29;20191;-70
2021/07/02 15:46:50;;;;;;;3.20;2.90;;;20.60;93.30;;;;;;6106619;29;20195;-70
2021/07/02 15:49:53;;;;;;;3.60;3.17;;;20.50;93.50;;;;;;6123595;29;20199;-71
2021/07/02 15:52:55;;;;;;;3.53;2.93;;;20.40;93.80;;;;;;6125723;29;20210;-71
2021/07/02 15:55:57;;;;;;;3.40;3.10;;;20.40;94.00;;;;;;6127948;29;20199;-70
2021/07/02 15:59:00;;;;;;;3.90;3.47;;;20.30;94.40;;;;;;6110680;29;20205;-70
2021/07/02 16:02:03;;;;;;;3.50;3.20;;;20.30;94.20;;;;;;6127128;29;20219;-70
2021/07/02 16:05:08;;;;;;;4.20;3.40;;;20.20;94.40;;;;;;6127576;29;20194;-70
2021/07/02 16:08:10;;;;;;;3.83;3.43;;;20.00;94.40;;;;;;6110448;29;20718;-70
2021/07/02 16:11:13;;;;;;;4.57;3.67;;;20.00;94.80;;;;;;6127556;29;20207;-70